Time;durP1;ratioP1;P1;durP2;ratioP2;P2;SDS_P1;SDS_P2;PMS_P1;PMS_P2;Temp;Humidity;BMP_temperature;BMP_pressure;BME280_temperature;BME280_humidity;BME280_pressure;Samples;Min_cycle;Max_cycle;Signal;HPM_P1;HPM_P2
2023/08/22 00:00:00;;;;;;;7.03;4.03;;;;;;;17.54;100.00;101189.31;701963;28;1940;-64
2023/08/22 00:00:20;;;;;;;7.28;4.00;;;;;;;17.52;100.00;101186.72;700699;28;1031;-64
2023/08/22 00:00:41;;;;;;;7.53;3.90;;;;;;;17.53;100.00;101184.97;699974;28;1285;-64
2023/08/22 00:01:02;;;;;;;6.77;3.73;;;;;;;17.56;100.00;101187.53;699655;28;1261;-67
2023/08/22 00:01:22;;;;;;;7.13;3.75;;;;;;;17.55;100.00;101184.91;697938;28;1198;-64
2023/08/22 00:01:43;;;;;;;6.90;3.97;;;;;;;17.54;100.00;101186.69;700488;28;1281;-64
2023/08/22 00:02:04;;;;;;;6.32;3.90;;;;;;;17.52;100.00;101183.22;701597;28;4272;-64
2023/08/22 00:02:27;;;;;;;6.15;4.28;;;;;;;17.52;100.00;101184.06;700289;28;1219;-64
2023/08/22 00:02:47;;;;;;;5.85;4.35;;;;;;;17.50;100.00;101182.38;704249;28;1363;-65
2023/08/22 00:03:08;;;;;;;6.82;4.03;;;;;;;17.50;100.00;101182.38;702145;28;1268;-65
2023/08/22 00:03:28;;;;;;;5.60;3.90;;;;;;;17.52;100.00;101181.44;699597;28;1032;-66
2023/08/22 00:03:49;;;;;;;5.60;3.97;;;;;;;17.55;100.00;101184.91;703437;28;1377;-65
2023/08/22 00:04:09;;;;;;;6.70;4.10;;;;;;;17.53;100.00;101183.19;702441;28;1451;-64
2023/08/22 00:04:30;;;;;;;6.67;4.10;;;;;;;17.51;100.00;101182.38;700349;27;1184;-65
2023/08/22 00:04:51;;;;;;;6.22;4.07;;;;;;;17.48;100.00;101186.84;701716;28;1229;-65
2023/08/22 00:05:12;;;;;;;5.75;4.00;;;;;;;17.48;100.00;101184.19;703206;27;4765;-64
2023/08/22 00:05:32;;;;;;;6.32;3.88;;;;;;;17.49;100.00;101183.31;701064;28;1407;-64
2023/08/22 00:05:52;;;;;;;6.28;4.18;;;;;;;17.48;100.00;101178.91;702827;28;834;-65
2023/08/22 00:06:13;;;;;;;6.00;3.83;;;;;;;17.46;100.00;101178.06;701688;28;1015;-65
2023/08/22 00:06:33;;;;;;;6.47;3.73;;;;;;;17.45;100.00;101184.28;701655;28;915;-64
2023/08/22 00:06:53;;;;;;;6.97;3.70;;;;;;;17.42;100.00;101193.16;701531;28;871;-65
2023/08/22 00:07:14;;;;;;;7.03;4.00;;;;;;;17.42;100.00;101186.97;701046;28;1725;-65
2023/08/22 00:07:34;;;;;;;5.50;4.00;;;;;;;17.42;100.00;101189.63;702214;28;1252;-65
2023/08/22 00:07:55;;;;;;;6.15;4.10;;;;;;;17.40;100.00;101183.53;703023;28;903;-65
2023/08/22 00:08:15;;;;;;;5.60;3.77;;;;;;;17.41;100.00;101185.28;698181;28;4333;-66
2023/08/22 00:08:36;;;;;;;5.85;4.03;;;;;;;17.41;100.00;101185.28;700663;28;1254;-65
2023/08/22 00:08:56;;;;;;;6.07;4.00;;;;;;;17.39;100.00;101185.31;700909;28;1277;-65
2023/08/22 00:09:17;;;;;;;6.18;3.88;;;;;;;17.39;100.00;101185.31;699616;28;1349;-65
2023/08/22 00:09:37;;;;;;;5.72;4.10;;;;;;;17.40;100.00;101179.09;704185;28;1348;-65
2023/08/22 00:09:58;;;;;;;6.10;4.00;;;;;;;17.40;100.00;101179.09;704778;28;1254;-65
2023/08/22 00:10:18;;;;;;;6.00;4.00;;;;;;;17.41;100.00;101177.34;699993;28;1244;-65
2023/08/22 00:10:38;;;;;;;5.70;3.92;;;;;;;17.42;100.00;101179.06;703828;28;1218;-65
2023/08/22 00:10:59;;;;;;;5.30;3.90;;;;;;;17.41;100.00;101177.34;703008;28;1352;-65
2023/08/22 00:11:19;;;;;;;7.03;4.00;;;;;;;17.43;100.00;101181.69;700373;28;4330;-66
2023/08/22 00:11:39;;;;;;;6.70;4.30;;;;;;;17.47;100.00;101177.16;702577;28;1298;-65
2023/08/22 00:12:00;;;;;;;7.13;4.33;;;;;;;17.48;100.00;101179.78;700416;28;1505;-65
2023/08/22 00:12:20;;;;;;;6.78;3.85;;;;;;;17.52;100.00;101177.94;699489;28;1312;-65
2023/08/22 00:12:41;;;;;;;7.70;3.90;;;;;;;17.49;100.00;101178.88;700058;28;1270;-65
2023/08/22 00:13:03;;;;;;;8.55;3.92;;;;;;;17.48;100.00;101176.28;700294;28;1241;-65
2023/08/22 00:13:23;;;;;;;7.55;4.45;;;;;;;17.48;100.00;101182.41;697439;28;1439;-66
2023/08/22 00:13:44;;;;;;;8.13;4.27;;;;;;;17.46;100.00;101176.31;702903;28;1261;-65
2023/08/22 00:14:04;;;;;;;6.97;4.07;;;;;;;17.47;100.00;101180.72;703180;27;4510;-64
2023/08/22 00:14:24;;;;;;;6.53;4.00;;;;;;;17.48;100.00;101177.13;702542;27;1060;-65
2023/08/22 00:14:45;;;;;;;5.63;3.63;;;;;;;17.46;100.00;101170.16;705411;27;1371;-66
2023/08/22 00:15:09;;;;;;;8.00;4.15;;;;;;;17.46;100.00;101183.34;702105;27;1232;-66
2023/08/22 00:15:30;;;;;;;8.55;4.35;;;;;;;17.45;100.00;101176.34;701090;28;1439;-65
2023/08/22 00:15:50;;;;;;;6.82;4.18;;;;;;;17.44;100.00;101177.25;703342;27;1252;-65
2023/08/22 00:16:11;;;;;;;6.35;3.97;;;;;;;17.40;100.00;101178.25;704993;27;1527;-66
2023/08/22 00:16:33;;;;;;;7.17;4.40;;;;;;;17.40;100.00;101178.25;700358;28;1427;-65
2023/08/22 00:16:54;;;;;;;5.93;3.67;;;;;;;17.46;100.00;101178.06;701851;28;1250;-65
2023/08/22 00:17:14;;;;;;;6.00;3.77;;;;;;;17.45;100.00;101179.84;699271;28;4325;-65
2023/08/22 00:17:39;;;;;;;6.07;4.00;;;;;;;17.43;100.00;101179.03;700845;28;1222;-65
2023/08/22 00:18:02;;;;;;;5.88;3.78;;;;;;;17.41;100.00;101180.84;702498;28;1269;-65
2023/08/22 00:18:23;;;;;;;7.03;4.47;;;;;;;17.39;100.00;101185.31;702316;28;1260;-65
2023/08/22 00:18:43;;;;;;;6.72;4.10;;;;;;;17.39;100.00;101185.31;702349;27;1280;-65
2023/08/22 00:19:04;;;;;;;5.45;3.78;;;;;;;17.38;100.00;101170.34;704860;27;1395;-65
2023/08/22 00:19:24;;;;;;;6.10;3.87;;;;;;;17.36;100.00;101180.97;701984;27;1522;-65
2023/08/22 00:19:45;;;;;;;5.40;3.80;;;;;;;17.38;100.00;101180.94;704992;27;1933;-65
2023/08/22 00:20:08;;;;;;;5.55;3.72;;;;;;;17.38;100.00;101180.03;701911;27;4429;-65
2023/08/22 00:20:28;;;;;;;7.18;4.10;;;;;;;17.35;100.00;101179.22;700838;27;1746;-65
2023/08/22 00:20:48;;;;;;;6.20;4.17;;;;;;;17.35;100.00;101179.22;702289;28;1494;-65
2023/08/22 00:21:09;;;;;;;7.10;4.13;;;;;;;17.33;100.00;101188.97;702292;28;1471;-65
2023/08/22 00:21:30;;;;;;;6.10;3.87;;;;;;;17.32;100.00;101183.69;701815;28;1548;-65
2023/08/22 00:21:50;;;;;;;8.23;3.90;;;;;;;17.33;100.00;101177.53;701374;28;1233;-65
2023/08/22 00:22:11;;;;;;;9.63;4.10;;;;;;;17.35;100.00;101176.56;704908;27;1301;-65
2023/08/22 00:22:32;;;;;;;7.70;4.05;;;;;;;17.35;100.00;101184.50;701990;28;1237;-65
2023/08/22 00:22:53;;;;;;;6.43;4.10;;;;;;;17.34;100.00;101180.13;704156;27;1106;-65
2023/08/22 00:23:13;;;;;;;5.17;3.80;;;;;;;17.32;100.00;101181.94;703285;27;4505;-65
2023/08/22 00:23:33;;;;;;;6.68;4.40;;;;;;;17.33;100.00;101188.97;701943;27;1288;-64
2023/08/22 00:23:54;;;;;;;7.40;3.90;;;;;;;17.32;100.00;101176.66;702548;27;1348;-65
2023/08/22 00:24:14;;;;;;;6.88;3.92;;;;;;;17.32;100.00;101181.94;701038;28;1886;-65
2023/08/22 00:24:38;;;;;;;5.63;3.93;;;;;;;17.31;100.00;101182.84;701381;28;1305;-66
2023/08/22 00:24:58;;;;;;;6.53;3.90;;;;;;;17.31;100.00;101180.19;698243;28;1703;-64
2023/08/22 00:25:18;;;;;;;5.75;3.70;;;;;;;17.30;100.00;101186.38;697727;28;1690;-65
2023/08/22 00:25:42;;;;;;;5.33;3.93;;;;;;;17.32;100.00;101173.13;701538;28;824;-66
2023/08/22 00:26:02;;;;;;;6.63;4.38;;;;;;;17.33;100.00;101177.53;700933;27;4390;-65
2023/08/22 00:26:22;;;;;;;5.63;4.20;;;;;;;17.36;100.00;101172.16;702221;28;2267;-65
2023/08/22 00:26:44;;;;;;;6.70;4.07;;;;;;;17.39;100.00;101181.78;703426;28;1253;-65
2023/08/22 00:27:04;;;;;;;5.93;4.03;;;;;;;17.36;100.00;101172.16;702868;28;1192;-66
2023/08/22 00:27:27;;;;;;;6.72;4.03;;;;;;;17.33;100.00;101175.75;701844;28;2165;-65
2023/08/22 00:27:47;;;;;;;8.18;4.28;;;;;;;17.36;100.00;101173.03;704658;27;1123;-65
2023/08/22 00:28:08;;;;;;;7.23;4.13;;;;;;;17.35;100.00;101166.00;704875;27;1570;-64
2023/08/22 00:28:28;;;;;;;8.27;4.10;;;;;;;17.35;100.00;101179.22;704016;27;2344;-65
2023/08/22 00:28:48;;;;;;;7.13;4.10;;;;;;;17.35;100.00;101171.28;705694;27;1423;-66
2023/08/22 00:29:11;;;;;;;7.47;4.45;;;;;;;17.32;100.00;101171.38;708757;27;4373;-65
2023/08/22 00:29:32;;;;;;;8.00;4.38;;;;;;;17.34;100.00;101168.69;707619;27;1090;-65
2023/08/22 00:29:53;;;;;;;7.40;4.60;;;;;;;17.33;100.00;101175.75;707037;27;1406;-65
2023/08/22 00:30:13;;;;;;;7.95;4.15;;;;;;;17.31;100.00;101180.19;703663;27;2505;-65
2023/08/22 00:30:34;;;;;;;6.35;4.20;;;;;;;17.31;100.00;101174.91;706459;27;1293;-66
2023/08/22 00:30:54;;;;;;;7.03;4.17;;;;;;;17.28;100.00;101177.66;702520;28;1290;-65
2023/08/22 00:31:15;;;;;;;7.10;4.10;;;;;;;17.29;100.00;101179.38;699318;27;5331;-65
2023/08/22 00:31:36;;;;;;;7.20;4.18;;;;;;;17.29;100.00;101179.38;701840;28;1452;-65
2023/08/22 00:31:59;;;;;;;7.50;4.30;;;;;;;17.30;100.00;101182.88;701475;28;1312;-65
2023/08/22 00:32:20;;;;;;;5.63;3.90;;;;;;;17.29;100.00;101176.75;696024;28;4479;-65
2023/08/22 00:32:40;;;;;;;5.77;4.10;;;;;;;17.29;100.00;101181.13;698236;28;1222;-62
2023/08/22 00:33:00;;;;;;;5.67;3.90;;;;;;;17.26;100.00;101182.09;698327;28;1258;-64
2023/08/22 00:33:21;;;;;;;5.75;3.80;;;;;;;17.24;100.00;101183.91;695562;28;1532;-65
2023/08/22 00:33:41;;;;;;;6.80;3.90;;;;;;;17.26;100.00;101179.44;698906;28;1147;-65
2023/08/22 00:34:02;;;;;;;7.00;4.07;;;;;;;17.27;100.00;101182.97;698590;28;1338;-65
2023/08/22 00:34:22;;;;;;;6.63;4.00;;;;;;;17.26;100.00;101183.88;692638;28;1887;-65
2023/08/22 00:34:43;;;;;;;7.43;3.92;;;;;;;17.25;100.00;101175.09;692921;28;1696;-67
2023/08/22 00:35:04;;;;;;;6.60;4.10;;;;;;;17.28;100.00;101184.69;695718;28;4429;-65
2023/08/22 00:35:28;;;;;;;7.23;4.13;;;;;;;17.28;100.00;101184.69;696545;28;1711;-65
2023/08/22 00:35:49;;;;;;;6.32;3.92;;;;;;;17.28;100.00;101179.41;699289;28;1393;-65
2023/08/22 00:36:10;;;;;;;5.70;4.20;;;;;;;17.24;100.00;101173.34;699582;28;1436;-65
2023/08/22 00:36:30;;;;;;;6.13;4.23;;;;;;;17.22;100.00;101180.41;699635;28;1103;-65
2023/08/22 00:36:50;;;;;;;5.95;4.00;;;;;;;17.19;100.00;101176.06;700744;28;1570;-65
2023/08/22 00:37:11;;;;;;;8.13;4.30;;;;;;;17.19;100.00;101170.78;702247;28;1429;-65
2023/08/22 00:37:31;;;;;;;7.83;4.10;;;;;;;17.19;100.00;101170.78;698993;28;1282;-65
2023/08/22 00:37:52;;;;;;;5.60;3.88;;;;;;;17.17;100.00;101171.75;697890;28;1291;-65
2023/08/22 00:38:13;;;;;;;6.97;4.00;;;;;;;17.15;100.00;101173.56;700649;28;4403;-64
2023/08/22 00:38:34;;;;;;;8.23;4.18;;;;;;;17.14;100.00;101171.81;701051;28;1401;-64
2023/08/22 00:38:54;;;;;;;6.05;3.95;;;;;;;17.10;100.00;101175.44;700359;28;1241;-65
2023/08/22 00:39:15;;;;;;;6.67;4.23;;;;;;;17.09;100.00;101174.56;700011;28;2545;-65
2023/08/22 00:39:35;;;;;;;6.90;4.10;;;;;;;17.10;100.00;101175.44;700919;28;1418;-65
2023/08/22 00:39:55;;;;;;;8.23;4.22;;;;;;;17.09;100.00;101171.94;700319;28;1963;-65
2023/08/22 00:40:16;;;;;;;9.83;4.10;;;;;;;17.07;100.00;101171.13;697437;28;2466;-65
2023/08/22 00:40:37;;;;;;;7.65;4.03;;;;;;;17.05;100.00;101170.25;696180;28;1281;-65
2023/08/22 00:40:57;;;;;;;7.03;4.40;;;;;;;17.04;100.00;101173.81;695310;28;1356;-66
2023/08/22 00:41:20;;;;;;;7.40;4.67;;;;;;;17.04;100.00;101171.16;698031;28;4465;-66
2023/08/22 00:41:42;;;;;;;6.85;4.90;;;;;;;17.03;100.00;101169.44;699399;28;1245;-66
2023/08/22 00:42:02;;;;;;;5.93;3.80;;;;;;;17.03;100.00;101169.44;702095;28;1311;-65
2023/08/22 00:42:23;;;;;;;6.40;4.00;;;;;;;17.02;100.00;101163.28;697692;28;2241;-66
2023/08/22 00:42:43;;;;;;;6.07;4.28;;;;;;;17.02;100.00;101168.56;696135;28;1277;-66
2023/08/22 00:43:04;;;;;;;7.13;4.15;;;;;;;17.04;100.00;101165.03;699292;28;1384;-65
2023/08/22 00:43:24;;;;;;;6.40;4.10;;;;;;;17.04;100.00;101171.16;695388;28;2526;-64
2023/08/22 00:43:46;;;;;;;6.10;4.20;;;;;;;17.06;100.00;101168.47;695344;28;1282;-66
2023/08/22 00:44:07;;;;;;;7.65;4.85;;;;;;;17.07;100.00;101165.84;693873;28;4396;-65
2023/08/22 00:44:30;;;;;;;6.68;4.03;;;;;;;17.08;100.00;101164.03;692456;28;1198;-64
2023/08/22 00:44:53;;;;;;;6.82;4.03;;;;;;;17.05;100.00;101162.34;694442;28;1618;-65
2023/08/22 00:45:14;;;;;;;6.68;4.30;;;;;;;17.01;100.00;101165.97;695094;28;1376;-66
2023/08/22 00:45:34;;;;;;;5.90;4.10;;;;;;;16.98;100.00;101166.91;695108;28;1249;-65
2023/08/22 00:45:55;;;;;;;6.45;4.18;;;;;;;16.96;100.00;101168.72;699050;28;1299;-66
2023/08/22 00:46:16;;;;;;;7.23;4.27;;;;;;;16.98;100.00;101161.63;700100;28;2304;-66
2023/08/22 00:46:36;;;;;;;6.80;3.85;;;;;;;17.01;100.00;101163.31;703320;28;1230;-65
2023/08/22 00:46:57;;;;;;;6.97;4.00;;;;;;;16.98;100.00;101158.97;702873;28;1237;-65
2023/08/22 00:47:18;;;;;;;6.55;4.38;;;;;;;16.99;100.00;101163.34;696271;28;4533;-65
2023/08/22 00:47:38;;;;;;;7.07;4.30;;;;;;;17.02;100.00;101159.78;698611;28;1549;-65
2023/08/22 00:47:59;;;;;;;8.70;4.60;;;;;;;17.05;100.00;101161.47;695105;28;1252;-65
2023/08/22 00:48:21;;;;;;;6.60;4.15;;;;;;;17.05;100.00;101166.75;695075;28;1758;-65
2023/08/22 00:48:42;;;;;;;6.70;4.23;;;;;;;17.04;100.00;101159.75;696440;28;1298;-66
2023/08/22 00:49:08;;;;;;;6.60;4.07;;;;;;;17.01;100.00;101161.53;692995;28;1572;-65
2023/08/22 00:49:29;;;;;;;6.60;4.00;;;;;;;17.01;100.00;101163.31;690530;28;1883;-66
2023/08/22 00:49:50;;;;;;;7.18;4.00;;;;;;;17.01;100.00;101165.97;693165;28;1239;-65
2023/08/22 00:50:11;;;;;;;5.95;4.40;;;;;;;17.01;100.00;101161.53;692814;28;4385;-65
2023/08/22 00:50:33;;;;;;;7.57;4.57;;;;;;;17.02;100.00;101165.06;693220;28;2178;-65
2023/08/22 00:50:53;;;;;;;9.57;4.75;;;;;;;17.01;100.00;101158.88;692412;28;1919;-65
2023/08/22 00:51:16;;;;;;;6.32;4.30;;;;;;;17.02;100.00;101167.72;690417;28;1219;-65
2023/08/22 00:51:39;;;;;;;5.15;4.00;;;;;;;17.02;100.00;101162.41;691066;28;1235;-65
2023/08/22 00:52:01;;;;;;;6.22;3.95;;;;;;;17.02;100.00;101168.56;695050;28;1132;-65
2023/08/22 00:52:22;;;;;;;7.00;4.43;;;;;;;17.02;100.00;101168.56;697520;28;973;-66
2023/08/22 00:52:42;;;;;;;6.93;4.40;;;;;;;17.02;100.00;101168.56;700911;28;1148;-65
2023/08/22 00:53:03;;;;;;;6.53;4.10;;;;;;;17.03;100.00;101169.44;701509;28;4549;-64
2023/08/22 00:53:25;;;;;;;7.53;4.10;;;;;;;17.01;100.00;101164.16;701092;27;1028;-65
2023/08/22 00:53:47;;;;;;;7.65;4.20;;;;;;;16.99;100.00;101166.00;703564;27;1177;-65
2023/08/22 00:54:07;;;;;;;7.55;4.30;;;;;;;17.00;100.00;101167.75;699743;28;1289;-64
2023/08/22 00:54:29;;;;;;;8.10;4.30;;;;;;;16.99;100.00;101168.63;696473;28;1126;-65
2023/08/22 00:54:50;;;;;;;6.80;4.22;;;;;;;17.00;100.00;101165.09;698523;28;1273;-65
2023/08/22 00:55:10;;;;;;;6.63;4.20;;;;;;;17.01;100.00;101166.81;694529;28;1287;-65
2023/08/22 00:55:32;;;;;;;7.40;4.20;;;;;;;17.02;100.00;101165.91;693341;28;1267;-65
2023/08/22 00:55:53;;;;;;;7.22;4.10;;;;;;;17.05;100.00;101162.34;692015;28;1445;-66
2023/08/22 00:56:14;;;;;;;7.70;4.40;;;;;;;17.05;100.00;101164.13;695396;28;4349;-65
2023/08/22 00:56:35;;;;;;;7.40;4.40;;;;;;;17.02;100.00;101158.00;698276;28;1460;-65
2023/08/22 00:56:56;;;;;;;6.97;4.40;;;;;;;17.02;100.00;101165.06;700313;28;1486;-64
2023/08/22 00:57:17;;;;;;;6.97;3.83;;;;;;;17.05;100.00;101161.47;702255;28;1340;-65
2023/08/22 00:57:38;;;;;;;7.22;4.00;;;;;;;17.02;100.00;101158.00;702240;27;1260;-65
2023/08/22 00:57:58;;;;;;;7.43;4.07;;;;;;;17.01;100.00;101165.97;702303;28;1340;-65
2023/08/22 00:58:18;;;;;;;6.83;4.10;;;;;;;17.00;100.00;101159.81;696882;28;1552;-64
2023/08/22 00:58:39;;;;;;;7.45;4.20;;;;;;;17.01;100.00;101163.31;695641;28;1499;-65
2023/08/22 00:59:03;;;;;;;7.80;4.15;;;;;;;16.98;100.00;101161.63;692694;28;1349;-64
2023/08/22 00:59:26;;;;;;;6.18;3.90;;;;;;;16.97;100.00;101162.50;692053;28;6348;-65
2023/08/22 00:59:46;;;;;;;6.60;4.35;;;;;;;16.94;100.00;101165.22;690428;28;1971;-65
2023/08/22 01:00:10;;;;;;;5.93;4.10;;;;;;;16.92;100.00;101161.78;694743;28;1432;-65
2023/08/22 01:00:30;;;;;;;6.68;4.20;;;;;;;16.91;100.00;101153.88;697279;28;1087;-65
2023/08/22 01:00:51;;;;;;;5.53;4.13;;;;;;;16.91;100.00;101160.03;696466;28;1555;-65
2023/08/22 01:01:11;;;;;;;6.20;3.97;;;;;;;16.95;100.00;101166.13;698767;28;1388;-65
2023/08/22 01:01:32;;;;;;;4.90;3.80;;;;;;;16.97;100.00;101159.00;702539;28;1123;-65
2023/08/22 01:01:53;;;;;;;5.60;3.92;;;;;;;16.96;100.00;101165.19;695214;28;1238;-65
2023/08/22 01:02:14;;;;;;;6.35;4.10;;;;;;;16.93;100.00;101160.84;694992;28;4373;-64
2023/08/22 01:02:35;;;;;;;7.05;4.00;;;;;;;16.91;100.00;101157.38;699203;28;1206;-65
2023/08/22 01:02:57;;;;;;;5.13;3.92;;;;;;;16.92;100.00;101158.25;697768;28;1540;-65
2023/08/22 01:03:17;;;;;;;5.70;3.85;;;;;;;16.99;100.00;101163.34;692845;28;1975;-65
2023/08/22 01:03:38;;;;;;;6.15;3.97;;;;;;;17.00;100.00;101161.56;698477;28;1322;-65
2023/08/22 01:03:59;;;;;;;5.82;4.00;;;;;;;16.99;100.00;101168.63;699506;28;1395;-65
2023/08/22 01:04:20;;;;;;;6.40;4.00;;;;;;;16.95;100.00;101166.97;699574;28;1176;-65
2023/08/22 01:04:40;;;;;;;7.47;4.30;;;;;;;16.95;100.00;101169.63;701288;28;1316;-65
2023/08/22 01:05:01;;;;;;;6.60;4.35;;;;;;;16.91;100.00;101162.66;700911;28;1425;-65
2023/08/22 01:05:26;;;;;;;6.60;4.40;;;;;;;16.88;100.00;101157.44;698969;28;4840;-65
2023/08/22 01:05:54;;;;;;;6.53;4.15;;;;;;;16.86;100.00;101159.22;698024;28;1341;-65
2023/08/22 01:06:20;;;;;;;7.80;4.45;;;;;;;16.85;100.00;101162.78;696677;28;1421;-66
2023/08/22 01:06:52;;;;;;;7.43;4.07;;;;;;;16.84;100.00;101164.53;699215;28;1289;-65
2023/08/22 01:07:25;;;;;;;7.47;3.95;;;;;;;16.84;100.00;101155.75;704493;27;1214;-65
2023/08/22 01:07:53;;;;;;;6.28;4.43;;;;;;;16.83;100.00;101160.16;703119;27;1380;-65
2023/08/22 01:08:19;;;;;;;6.53;4.10;;;;;;;16.85;100.00;101158.38;702505;28;4331;-64
2023/08/22 01:08:46;;;;;;;5.35;4.18;;;;;;;16.84;100.00;101153.97;702477;27;1315;-65
2023/08/22 01:09:18;;;;;;;6.00;4.13;;;;;;;16.82;100.00;101152.28;700508;28;1320;-65
2023/08/22 01:09:52;;;;;;;7.13;4.10;;;;;;;16.78;100.00;101154.13;700755;28;1372;-65
2023/08/22 01:10:24;;;;;;;6.85;4.20;;;;;;;16.73;100.00;101156.00;696980;28;2217;-65
2023/08/22 01:10:52;;;;;;;6.35;4.30;;;;;;;16.72;100.00;101158.69;697079;28;1336;-65
2023/08/22 01:11:23;;;;;;;7.18;4.03;;;;;;;16.72;100.00;101154.25;699902;28;4337;-65
2023/08/22 01:11:47;;;;;;;7.57;4.03;;;;;;;16.73;100.00;101148.09;698689;28;1305;-65
2023/08/22 01:12:20;;;;;;;7.30;4.35;;;;;;;16.73;100.00;101144.59;698691;28;2072;-64
2023/08/22 01:13:03;;;;;;;7.80;4.35;;;;;;;16.80;100.00;101148.81;699244;28;1018;-66
2023/08/22 01:13:30;;;;;;;6.50;4.85;;;;;;;16.95;100.00;101148.50;698871;28;1328;-65
2023/08/22 01:13:54;;;;;;;6.72;4.07;;;;;;;16.99;100.00;101147.50;698683;28;1389;-66
2023/08/22 01:14:19;;;;;;;5.50;3.97;;;;;;;16.95;100.00;101148.50;699426;28;5277;-66
2023/08/22 01:14:48;;;;;;;4.63;3.60;;;;;;;16.88;100.00;101149.50;699984;28;1344;-65
2023/08/22 01:15:26;;;;;;;6.40;3.85;;;;;;;16.81;100.00;101146.13;701605;28;1222;-65
2023/08/22 01:15:49;;;;;;;8.13;4.40;;;;;;;16.77;100.00;101146.25;702190;28;1284;-65
2023/08/22 01:16:11;;;;;;;8.18;5.10;;;;;;;16.75;100.00;101150.69;702872;27;3293;-65
2023/08/22 01:16:32;;;;;;;6.65;4.80;;;;;;;16.72;100.00;101143.69;702700;27;1528;-65
2023/08/22 01:16:53;;;;;;;6.20;4.25;;;;;;;16.72;100.00;101148.13;705077;27;1232;-65
2023/08/22 01:17:14;;;;;;;6.47;4.13;;;;;;;16.69;100.00;101149.91;701512;28;4410;-65
2023/08/22 01:17:36;;;;;;;6.13;4.15;;;;;;;16.67;100.00;101149.09;700618;28;2284;-64
2023/08/22 01:17:57;;;;;;;6.22;4.00;;;;;;;16.66;100.00;101150.00;700828;28;1374;-65
2023/08/22 01:18:21;;;;;;;7.13;4.40;;;;;;;16.64;100.00;101149.16;699555;28;1849;-65
2023/08/22 01:18:42;;;;;;;7.38;4.72;;;;;;;16.63;100.00;101150.06;697557;28;1202;-65
2023/08/22 01:19:05;;;;;;;8.48;4.60;;;;;;;16.62;100.00;101150.97;697643;28;1380;-65
2023/08/22 01:19:26;;;;;;;7.20;4.22;;;;;;;16.63;100.00;101149.22;697005;28;1693;-65
2023/08/22 01:19:47;;;;;;;6.15;4.40;;;;;;;16.61;100.00;101149.22;700260;28;1925;-65
2023/08/22 01:20:11;;;;;;;6.25;4.35;;;;;;;16.57;100.00;101134.34;699741;28;4413;-64
2023/08/22 01:20:33;;;;;;;7.32;4.47;;;;;;;16.55;100.00;101141.44;700443;28;1536;-65
2023/08/22 01:21:07;;;;;;;7.57;4.47;;;;;;;16.52;100.00;101147.66;702373;28;1392;-65
2023/08/22 01:21:29;;;;;;;7.00;4.50;;;;;;;16.52;100.00;101147.66;699612;28;2156;-65
2023/08/22 01:21:51;;;;;;;6.07;4.28;;;;;;;16.57;100.00;101136.13;701735;28;1258;-65
2023/08/22 01:22:12;;;;;;;5.72;3.90;;;;;;;16.59;100.00;101140.47;701245;28;1328;-65
2023/08/22 01:22:32;;;;;;;6.10;4.18;;;;;;;16.59;100.00;101145.75;692793;28;2410;-66
2023/08/22 01:22:53;;;;;;;5.67;4.27;;;;;;;16.57;100.00;101144.91;697236;28;1242;-65
2023/08/22 01:23:14;;;;;;;6.07;4.20;;;;;;;16.54;100.00;101144.97;696710;28;4516;-65
2023/08/22 01:23:36;;;;;;;6.30;4.17;;;;;;;16.53;100.00;101145.88;692235;28;2729;-65
2023/08/22 01:23:57;;;;;;;8.63;4.32;;;;;;;16.57;100.00;101144.91;692753;28;1329;-65
2023/08/22 01:24:17;;;;;;;7.90;4.20;;;;;;;16.58;100.00;101141.38;693798;28;1542;-66
2023/08/22 01:24:38;;;;;;;6.43;4.20;;;;;;;16.59;100.00;101136.97;697848;28;1289;-65
2023/08/22 01:24:58;;;;;;;6.45;4.05;;;;;;;16.58;100.00;101141.38;692510;28;1314;-65
2023/08/22 01:25:19;;;;;;;7.63;4.00;;;;;;;16.58;100.00;101136.09;694716;28;1450;-65
2023/08/22 01:25:40;;;;;;;6.03;4.07;;;;;;;16.60;100.00;101136.06;695525;28;1356;-65
2023/08/22 01:26:01;;;;;;;5.95;3.95;;;;;;;16.59;100.00;101143.13;696041;28;1585;-64
2023/08/22 01:26:26;;;;;;;7.40;3.90;;;;;;;16.59;100.00;101137.84;695319;28;4807;-65
2023/08/22 01:26:47;;;;;;;6.15;4.32;;;;;;;16.59;100.00;101142.25;700739;27;1450;-65
2023/08/22 01:27:12;;;;;;;6.10;4.30;;;;;;;16.56;100.00;101135.28;704123;27;1455;-65
2023/08/22 01:27:39;;;;;;;6.28;4.13;;;;;;;16.56;100.00;101143.19;704070;27;2293;-65
2023/08/22 01:28:29;;;;;;;7.35;4.38;;;;;;;16.57;100.00;101139.63;702486;27;1348;-65
2023/08/22 01:28:56;;;;;;;6.05;3.95;;;;;;;16.58;100.00;101146.66;701650;28;1331;-65
2023/08/22 01:29:41;;;;;;;6.78;4.13;;;;;;;16.55;100.00;101140.59;703442;27;4282;-66
2023/08/22 01:30:12;;;;;;;5.38;4.07;;;;;;;16.63;100.00;101136.00;706784;27;1314;-66
2023/08/22 01:30:41;;;;;;;5.57;4.10;;;;;;;16.64;100.00;101138.59;704168;27;1917;-65
2023/08/22 01:31:14;;;;;;;6.35;3.88;;;;;;;16.64;100.00;101141.25;701105;28;1390;-65
2023/08/22 01:31:50;;;;;;;5.85;3.90;;;;;;;16.60;100.00;101144.84;698497;28;1272;-65
2023/08/22 01:32:23;;;;;;;6.22;3.85;;;;;;;16.60;100.00;101136.94;696886;28;4460;-65
2023/08/22 01:32:48;;;;;;;5.55;4.28;;;;;;;16.60;100.00;101147.50;693809;28;1324;-65
2023/08/22 01:33:17;;;;;;;6.90;4.10;;;;;;;16.59;100.00;101137.84;695583;28;1472;-65
2023/08/22 01:34:13;;;;;;;6.78;4.10;;;;;;;16.60;100.00;101138.69;694404;28;1338;-65
2023/08/22 01:34:36;;;;;;;6.15;4.00;;;;;;;16.61;100.00;101146.56;693358;28;1891;-65
2023/08/22 01:35:05;;;;;;;6.90;4.07;;;;;;;16.65;100.00;101139.47;695135;28;1348;-65
2023/08/22 01:35:27;;;;;;;6.47;4.43;;;;;;;16.66;100.00;101135.94;695804;28;6070;-65
2023/08/22 01:35:51;;;;;;;6.45;4.15;;;;;;;16.67;100.00;101140.31;701219;28;1300;-64
2023/08/22 01:36:13;;;;;;;6.43;4.05;;;;;;;16.66;100.00;101139.44;701238;28;1225;-65
2023/08/22 01:36:36;;;;;;;6.03;3.90;;;;;;;16.65;100.00;101131.53;700307;27;1791;-65
2023/08/22 01:36:58;;;;;;;6.28;4.10;;;;;;;16.66;100.00;101131.50;701709;28;1371;-65
2023/08/22 01:37:22;;;;;;;7.75;4.40;;;;;;;16.65;100.00;101136.81;701767;27;1611;-65
2023/08/22 01:37:43;;;;;;;6.45;3.85;;;;;;;16.62;100.00;101137.75;704328;27;1650;-64
2023/08/22 01:38:05;;;;;;;6.38;3.90;;;;;;;16.62;100.00;101137.75;701449;28;4532;-65
2023/08/22 01:38:29;;;;;;;6.95;4.20;;;;;;;16.62;100.00;101150.97;699835;28;1238;-65
2023/08/22 01:38:54;;;;;;;5.95;4.05;;;;;;;16.62;100.00;101147.47;700784;28;1540;-65
2023/08/22 01:39:17;;;;;;;6.03;3.95;;;;;;;16.64;100.00;101145.63;696435;28;1520;-65
2023/08/22 01:39:41;;;;;;;5.78;3.80;;;;;;;16.63;100.00;101136.88;694775;28;1498;-64
2023/08/22 01:40:07;;;;;;;5.25;3.60;;;;;;;16.62;100.00;101140.41;694902;28;1905;-65
2023/08/22 01:40:29;;;;;;;6.88;3.80;;;;;;;16.58;100.00;101136.09;694459;28;1747;-65
2023/08/22 01:40:51;;;;;;;6.15;3.70;;;;;;;16.56;100.00;101143.19;693097;28;1207;-65
2023/08/22 01:41:11;;;;;;;6.40;4.05;;;;;;;16.54;100.00;101139.69;694294;28;4523;-65
2023/08/22 01:41:36;;;;;;;6.67;4.50;;;;;;;16.52;100.00;101141.53;695980;28;1939;-65
2023/08/22 01:41:58;;;;;;;6.25;4.13;;;;;;;16.51;100.00;101139.78;699011;28;1768;-65
2023/08/22 01:42:23;;;;;;;6.53;4.32;;;;;;;16.54;100.00;101141.47;697772;28;1489;-65
2023/08/22 01:42:44;;;;;;;5.85;4.38;;;;;;;16.53;100.00;101137.94;696682;28;1873;-65
2023/08/22 01:43:05;;;;;;;5.60;3.97;;;;;;;16.53;100.00;101140.59;697482;28;1226;-65
2023/08/22 01:43:25;;;;;;;6.57;4.22;;;;;;;16.54;100.00;101141.47;693669;28;1695;-66
2023/08/22 01:43:46;;;;;;;6.43;4.60;;;;;;;16.55;100.00;101141.44;695287;28;1265;-65
2023/08/22 01:44:06;;;;;;;6.72;4.13;;;;;;;16.58;100.00;101145.78;697652;28;4506;-65
2023/08/22 01:44:28;;;;;;;6.35;3.92;;;;;;;16.57;100.00;101138.75;695992;28;1634;-64
2023/08/22 01:44:49;;;;;;;5.97;4.15;;;;;;;16.54;100.00;101142.34;694255;28;1316;-65
2023/08/22 01:45:12;;;;;;;6.53;4.17;;;;;;;16.52;100.00;101141.53;696921;28;1447;-65
2023/08/22 01:45:33;;;;;;;5.78;4.00;;;;;;;16.51;100.00;101143.28;696109;28;1298;-64
2023/08/22 01:45:53;;;;;;;5.80;3.83;;;;;;;16.50;100.00;101144.19;689754;28;1433;-67